Time,TemperatureF,DewpointF,PressureIn,WindDirection,WindDirectionDegrees,WindSpeedMPH,WindSpeedGustMPH,Humidity,HourlyPrecipIn,Conditions,Clouds,dailyrainin,SoftwareType,DateUTC
2013-02-25 00:00:00,30.8,30.8,29.92,NE,36,0.0,1.0,100,0.00,,,0.00,WeatherCatV1.12B45,2013-02-25 05:00:00,
2013-02-25 00:05:00,30.6,30.6,29.92,NE,36,0.0,0.0,100,0.00,,,0.00,WeatherCatV1.12B45,2013-02-25 05:05:00,
2013-02-25 00:10:00,30.6,30.6,29.92,NE,36,1.0,4.0,100,0.00,,,0.00,WeatherCatV1.12B45,2013-02-25 05:10:00,
2013-02-25 00:15:00,30.6,30.6,29.93,NE,36,0.0,3.0,100,0.00,,,0.00,WeatherCatV1.12B45,2013-02-25 05:15:00,
2013-02-25 00:20:00,30.5,30.5,29.92,NE,36,0.0,0.0,100,0.00,,,0.00,WeatherCatV1.12B45,2013-02-25 05:20:00,
2013-02-25 00:25:00,30.5,30.5,29.92,NE,36,0.0,0.0,100,0.00,,,0.00,WeatherCatV1.12B45,2013-02-25 05:25:00,
2013-02-25 00:30:00,30.5,30.5,29.93,NE,36,0.0,0.0,100,0.00,,,0.00,WeatherCatV1.12B45,2013-02-25 05:30:00,
2013-02-25 00:35:00,30.3,30.3,29.93,NE,36,1.0,3.0,100,0.00,,,0.00,WeatherCatV1.12B45,2013-02-25 05:35:00,
2013-02-25 00:40:00,30.3,30.3,29.93,NE,36,1.0,2.0,100,0.00,,,0.00,WeatherCatV1.12B45,2013-02-25 05:40:00,
2013-02-25 00:45:00,30.3,30.3,29.93,NE,36,0.0,2.0,100,0.00,,,0.00,WeatherCatV1.12B45,2013-02-25 05:45:00,
2013-02-25 00:50:00,30.2,30.2,29.94,NE,36,0.0,2.0,100,0.00,,,0.00,WeatherCatV1.12B45,2013-02-25 05:50:00,
2013-02-25 00:55:00,30.2,30.2,29.94,NE,36,0.0,2.0,100,0.00,,,0.00,WeatherCatV1.12B45,2013-02-25 05:55:00,
2013-02-25 01:00:00,30.2,30.2,29.94,NE,36,0.0,0.0,100,0.00,,,0.00,WeatherCatV1.12B45,2013-02-25 06:00:00,
2013-02-25 01:05:00,30.3,30.3,29.94,NE,36,0.0,0.0,100,0.00,,,0.00,WeatherCatV1.12B45,2013-02-25 06:05:00,
2013-02-25 01:10:00,30.3,30.3,29.95,NE,36,0.0,0.0,100,0.00,,,0.00,WeatherCatV1.12B45,2013-02-25 06:10:00,
2013-02-25 01:15:00,30.3,30.3,29.94,NE,36,0.0,0.0,100,0.00,,,0.00,WeatherCatV1.12B45,2013-02-25 06:15:00,
2013-02-25 01:20:00,30.3,30.3,29.94,NE,36,0.0,0.0,100,0.00,,,0.00,WeatherCatV1.12B45,2013-02-25 06:20:00,
2013-02-25 01:25:00,30.3,30.3,29.95,NE,36,0.0,0.0,100,0.00,,,0.00,WeatherCatV1.12B45,2013-02-25 06:25:00,
2013-02-25 01:30:00,30.3,30.3,29.95,NE,36,0.0,0.0,100,0.00,,,0.00,WeatherCatV1.12B45,2013-02-25 06:30:00,
2013-02-25 01:35:00,30.5,30.5,29.95,NE,36,0.0,0.0,100,0.00,,,0.00,WeatherCatV1.12B45,2013-02-25 06:35:00,
2013-02-25 01:40:00,30.5,30.5,29.96,NE,36,0.0,0.0,100,0.00,,,0.00,WeatherCatV1.12B45,2013-02-25 06:40:00,
2013-02-25 01:45:00,30.5,30.5,29.95,NE,36,0.0,0.0,100,0.00,,,0.00,WeatherCatV1.12B45,2013-02-25 06:45:00,
2013-02-25 01:50:00,30.5,30.5,29.95,NE,36,0.0,0.0,100,0.00,,,0.00,WeatherCatV1.12B45,2013-02-25 06:50:00,
2013-02-25 01:55:00,30.6,30.6,29.95,NE,36,0.0,0.0,100,0.00,,,0.00,WeatherCatV1.12B45,2013-02-25 06:55:00,
2013-02-25 02:00:00,30.5,30.5,29.96,NE,36,0.0,0.0,100,0.00,,,0.00,WeatherCatV1.12B45,2013-02-25 07:00:00,
2013-02-25 02:05:00,30.5,30.5,29.96,NE,36,0.0,0.0,100,0.00,,,0.00,WeatherCatV1.12B45,2013-02-25 07:05:00,
2013-02-25 02:10:00,30.5,30.5,29.96,NE,36,0.0,0.0,100,0.00,,,0.00,WeatherCatV1.12B45,2013-02-25 07:10:00,
2013-02-25 02:15:00,30.5,30.5,29.95,NE,36,0.0,0.0,100,0.00,,,0.00,WeatherCatV1.12B45,2013-02-25 07:15:00,
2013-02-25 02:20:00,30.5,30.5,29.95,NE,36,0.0,0.0,100,0.00,,,0.00,WeatherCatV1.12B45,2013-02-25 07:20:00,
2013-02-25 02:25:00,30.5,30.5,29.96,NE,36,0.0,0.0,100,0.00,,,0.00,WeatherCatV1.12B45,2013-02-25 07:25:00,
2013-02-25 02:30:00,30.5,30.5,29.94,NE,36,0.0,0.0,100,0.00,,,0.00,WeatherCatV1.12B45,2013-02-25 07:30:00,
2013-02-25 02:35:00,30.5,30.5,29.96,NE,36,0.0,0.0,100,0.00,,,0.00,WeatherCatV1.12B45,2013-02-25 07:35:00,
2013-02-25 02:40:00,30.5,30.5,29.96,NE,36,0.0,0.0,100,0.00,,,0.00,WeatherCatV1.12B45,2013-02-25 07:40:00,
2013-02-25 02:45:00,30.5,30.5,29.96,NE,36,0.0,1.0,100,0.00,,,0.00,WeatherCatV1.12B45,2013-02-25 07:45:00,
2013-02-25 02:50:00,30.5,30.5,29.96,NE,36,0.0,0.0,100,0.00,,,0.00,WeatherCatV1.12B45,2013-02-25 07:50:00,
2013-02-25 02:55:00,30.5,30.5,29.96,NE,36,0.0,0.0,100,0.00,,,0.00,WeatherCatV1.12B45,2013-02-25 07:55:00,
2013-02-25 03:00:00,30.3,30.3,29.96,NE,36,0.0,0.0,100,0.00,,,0.00,WeatherCatV1.12B45,2013-02-25 08:00:00,
2013-02-25 03:05:00,30.3,30.3,29.96,NE,36,0.0,0.0,100,0.00,,,0.00,WeatherCatV1.12B45,2013-02-25 08:05:00,
2013-02-25 03:10:00,30.3,30.3,29.96,NE,36,0.0,0.0,100,0.00,,,0.00,WeatherCatV1.12B45,2013-02-25 08:10:00,
2013-02-25 03:15:00,30.3,30.3,29.97,NE,36,0.0,0.0,100,0.00,,,0.00,WeatherCatV1.12B45,2013-02-25 08:15:00,
2013-02-25 03:20:00,30.3,30.3,29.97,NE,36,0.0,0.0,100,0.00,,,0.00,WeatherCatV1.12B45,2013-02-25 08:20:00,
2013-02-25 03:25:00,30.3,30.3,29.97,NE,36,0.0,0.0,100,0.00,,,0.00,WeatherCatV1.12B45,2013-02-25 08:25:00,
2013-02-25 03:30:00,30.2,30.2,29.97,NE,36,0.0,0.0,100,0.00,,,0.00,WeatherCatV1.12B45,2013-02-25 08:30:00,
2013-02-25 03:35:00,30.2,30.2,29.97,NE,36,0.0,0.0,100,0.00,,,0.00,WeatherCatV1.12B45,2013-02-25 08:35:00,
2013-02-25 03:40:00,30.1,30.1,29.98,NE,36,0.0,0.0,100,0.18,,,0.56,WeatherCatV1.12B45,2013-02-25 08:40:00,
2013-02-25 03:45:00,30.0,30.0,29.97,NE,36,1.0,1.0,100,0.00,,,0.56,WeatherCatV1.12B45,2013-02-25 08:45:00,
2013-02-25 03:50:00,30.0,30.0,29.97,NE,36,0.0,2.0,100,0.00,,,0.56,WeatherCatV1.12B45,2013-02-25 08:50:00,
2013-02-25 03:55:00,30.0,30.0,29.97,NE,36,0.0,0.0,100,0.00,,,0.56,WeatherCatV1.12B45,2013-02-25 08:55:00,
2013-02-25 04:00:00,29.9,29.9,29.97,NE,36,0.0,0.0,100,0.00,,,0.56,WeatherCatV1.12B45,2013-02-25 09:00:00,
2013-02-25 04:05:00,29.9,29.9,29.98,NE,36,0.0,0.0,100,0.00,,,0.56,WeatherCatV1.12B45,2013-02-25 09:05:00,
2013-02-25 04:10:00,29.9,29.9,29.99,NE,36,0.0,0.0,100,0.00,,,0.56,WeatherCatV1.12B45,2013-02-25 09:10:00,
2013-02-25 04:15:00,29.9,29.9,29.99,NE,36,0.0,0.0,100,0.00,,,0.56,WeatherCatV1.12B45,2013-02-25 09:15:00,
2013-02-25 04:20:00,29.9,29.9,29.98,NE,36,0.0,0.0,100,0.00,,,0.56,WeatherCatV1.12B45,2013-02-25 09:20:00,
2013-02-25 04:25:00,29.9,29.9,29.99,NE,36,0.0,0.0,100,0.00,,,0.56,WeatherCatV1.12B45,2013-02-25 09:25:00,
2013-02-25 04:30:00,29.9,29.9,30.00,NE,36,0.0,0.0,100,0.00,,,0.56,WeatherCatV1.12B45,2013-02-25 09:30:00,
2013-02-25 04:35:00,30.0,30.0,29.99,NE,36,0.0,0.0,100,0.00,,,0.56,WeatherCatV1.12B45,2013-02-25 09:35:00,
2013-02-25 04:40:00,30.0,30.0,29.99,NE,36,0.0,0.0,100,0.00,,,0.56,WeatherCatV1.12B45,2013-02-25 09:40:00,
2013-02-25 04:45:00,30.0,30.0,30.00,NE,36,0.0,0.0,100,0.00,,,0.56,WeatherCatV1.12B45,2013-02-25 09:45:00,
2013-02-25 04:50:00,30.0,30.0,30.00,NE,36,0.0,0.0,100,0.00,,,0.56,WeatherCatV1.12B45,2013-02-25 09:50:00,
2013-02-25 04:55:00,29.9,29.9,30.00,NE,36,0.0,0.0,100,0.00,,,0.56,WeatherCatV1.12B45,2013-02-25 09:55:00,
2013-02-25 05:00:00,29.9,29.9,30.00,NE,36,0.0,0.0,100,0.00,,,0.56,WeatherCatV1.12B45,2013-02-25 10:00:00,
2013-02-25 05:05:00,29.6,29.6,30.01,NE,36,0.0,0.0,100,0.00,,,0.56,WeatherCatV1.12B45,2013-02-25 10:05:00,
2013-02-25 05:10:00,29.4,29.4,30.01,NE,36,0.0,0.0,100,0.00,,,0.56,WeatherCatV1.12B45,2013-02-25 10:10:00,
2013-02-25 05:15:00,29.1,29.1,30.00,NE,36,0.0,0.0,100,0.00,,,0.56,WeatherCatV1.12B45,2013-02-25 10:15:00,
2013-02-25 05:20:00,29.0,29.0,30.00,NE,36,0.0,0.0,100,0.00,,,0.56,WeatherCatV1.12B45,2013-02-25 10:20:00,
2013-02-25 05:21:00,29.0,29.0,30.00,NE,36,0.0,0.0,100,0.00,,,0.56,WeatherCatV1.12B45,2013-02-25 10:21:00,
2013-02-25 05:26:00,28.7,28.7,30.01,NE,36,0.0,0.0,100,0.00,,,0.56,WeatherCatV1.12B45,2013-02-25 10:26:00,
2013-02-25 05:31:00,28.4,28.4,30.01,NE,36,0.0,0.0,100,0.00,,,0.56,WeatherCatV1.12B45,2013-02-25 10:31:00,
2013-02-25 05:36:00,28.2,28.2,30.01,NE,36,0.0,0.0,100,0.00,,,0.56,WeatherCatV1.12B45,2013-02-25 10:36:00,
2013-02-25 05:41:00,28.3,28.3,30.02,NE,36,0.0,0.0,100,0.00,,,0.56,WeatherCatV1.12B45,2013-02-25 10:41:00,
2013-02-25 05:46:00,28.2,28.2,30.02,NE,36,0.0,0.0,100,0.00,,,0.56,WeatherCatV1.12B45,2013-02-25 10:46:00,
2013-02-25 05:51:00,28.2,28.2,30.02,NE,36,0.0,0.0,100,0.00,,,0.56,WeatherCatV1.12B45,2013-02-25 10:51:00,
2013-02-25 05:56:00,28.3,28.3,30.02,NE,36,0.0,0.0,100,0.00,,,0.56,WeatherCatV1.12B45,2013-02-25 10:56:00,
2013-02-25 06:01:00,28.4,28.4,30.02,NE,36,0.0,0.0,100,0.00,,,0.56,WeatherCatV1.12B45,2013-02-25 11:01:00,
2013-02-25 06:06:00,28.5,28.5,30.03,NE,36,0.0,0.0,100,0.00,,,0.56,WeatherCatV1.12B45,2013-02-25 11:06:00,
2013-02-25 06:11:00,28.5,28.5,30.03,NE,36,0.0,0.0,100,0.00,,,0.56,WeatherCatV1.12B45,2013-02-25 11:11:00,
2013-02-25 06:16:00,28.5,28.5,30.03,NE,36,0.0,0.0,100,0.00,,,0.56,WeatherCatV1.12B45,2013-02-25 11:16:00,
2013-02-25 06:21:00,28.4,28.4,30.02,NE,36,0.0,0.0,100,0.00,,,0.56,WeatherCatV1.12B45,2013-02-25 11:21:00,
2013-02-25 06:26:00,28.4,28.4,30.03,NE,36,0.0,0.0,100,0.00,,,0.56,WeatherCatV1.12B45,2013-02-25 11:26:00,
2013-02-25 06:31:00,28.4,28.4,30.03,NE,36,0.0,0.0,100,0.00,,,0.56,WeatherCatV1.12B45,2013-02-25 11:31:00,
2013-02-25 06:36:00,28.5,28.5,30.04,NE,36,0.0,0.0,100,0.00,,,0.56,WeatherCatV1.12B45,2013-02-25 11:36:00,
2013-02-25 06:41:00,28.7,28.7,30.04,NE,36,0.0,0.0,100,0.00,,,0.56,WeatherCatV1.12B45,2013-02-25 11:41:00,
2013-02-25 06:46:00,28.8,28.8,30.05,NE,36,0.0,0.0,100,0.00,,,0.56,WeatherCatV1.12B45,2013-02-25 11:46:00,
2013-02-25 06:51:00,28.8,28.8,30.05,NE,36,0.0,0.0,100,0.00,,,0.56,WeatherCatV1.12B45,2013-02-25 11:51:00,
2013-02-25 06:56:00,28.8,28.8,30.06,NE,36,0.0,0.0,100,0.00,,,0.56,WeatherCatV1.12B45,2013-02-25 11:56:00,
2013-02-25 07:01:00,29.0,29.0,30.06,NE,36,0.0,0.0,100,0.00,,,0.56,WeatherCatV1.12B45,2013-02-25 12:01:00,
2013-02-25 07:06:00,29.1,29.1,30.05,NE,36,0.0,0.0,100,0.00,,,0.56,WeatherCatV1.12B45,2013-02-25 12:06:00,
2013-02-25 07:11:00,29.3,29.3,30.05,NE,36,0.0,0.0,100,0.00,,,0.56,WeatherCatV1.12B45,2013-02-25 12:11:00,
2013-02-25 07:16:00,29.4,29.4,30.06,NE,36,0.0,0.0,100,0.00,,,0.56,WeatherCatV1.12B45,2013-02-25 12:16:00,
2013-02-25 07:21:00,29.6,29.6,30.06,NE,36,0.0,0.0,100,0.00,,,0.56,WeatherCatV1.12B45,2013-02-25 12:21:00,
2013-02-25 07:26:00,29.6,29.6,30.06,NE,36,0.0,0.0,100,0.00,,,0.56,WeatherCatV1.12B45,2013-02-25 12:26:00,
2013-02-25 07:31:00,29.7,29.7,30.06,NE,36,0.0,0.0,100,0.00,,,0.56,WeatherCatV1.12B45,2013-02-25 12:31:00,
2013-02-25 07:36:00,29.9,29.9,30.06,NE,36,0.0,0.0,100,0.00,,,0.56,WeatherCatV1.12B45,2013-02-25 12:36:00,
2013-02-25 07:41:00,30.2,30.2,30.06,NE,36,0.0,0.0,100,0.00,,,0.56,WeatherCatV1.12B45,2013-02-25 12:41:00,
2013-02-25 07:46:00,30.3,30.3,30.07,NE,36,0.0,0.0,100,0.00,,,0.56,WeatherCatV1.12B45,2013-02-25 12:46:00,
2013-02-25 07:51:00,30.6,30.6,30.07,NE,36,0.0,0.0,100,0.00,,,0.56,WeatherCatV1.12B45,2013-02-25 12:51:00,
2013-02-25 07:53:00,30.6,30.6,30.07,NE,36,0.0,0.0,100,0.00,,,0.56,WeatherCatV1.12B45,2013-02-25 12:53:00,
2013-02-25 07:56:00,30.9,30.9,30.07,NE,36,0.0,0.0,100,0.00,,,0.56,WeatherCatV1.12B45,2013-02-25 12:56:00,
2013-02-25 08:01:00,31.1,31.1,30.07,NE,36,0.0,0.0,100,0.00,,,0.56,WeatherCatV1.12B45,2013-02-25 13:01:00,
2013-02-25 08:05:00,31.2,31.2,30.07,NE,36,0.0,0.0,100,0.00,,,0.56,WeatherCatV1.12B45,2013-02-25 13:05:00,
2013-02-25 08:06:00,31.2,31.2,30.07,NE,36,0.0,0.0,100,0.00,,,0.56,WeatherCatV1.12B45,2013-02-25 13:06:00,
2013-02-25 08:07:00,31.2,31.2,30.07,NE,36,0.0,0.0,100,0.00,,,0.56,WeatherCatV1.12B45,2013-02-25 13:07:00,
2013-02-25 08:10:00,31.4,31.4,30.08,NE,36,0.0,0.0,100,0.00,,,0.56,WeatherCatV1.12B45,2013-02-25 13:10:00,
2013-02-25 08:15:00,31.6,31.6,30.08,NE,36,0.0,0.0,100,0.00,,,0.56,WeatherCatV1.12B45,2013-02-25 13:15:00,
2013-02-25 08:16:00,31.6,31.6,30.08,NE,36,0.0,0.0,100,0.00,,,0.56,WeatherCatV1.12B45,2013-02-25 13:16:00,
2013-02-25 08:21:00,31.8,31.8,30.08,NE,36,0.0,0.0,100,0.00,,,0.56,WeatherCatV1.12B45,2013-02-25 13:21:00,
2013-02-25 08:26:00,31.9,31.9,30.08,NE,36,0.0,0.0,100,0.00,,,0.56,WeatherCatV1.12B45,2013-02-25 13:26:00,
2013-02-25 08:31:00,32.1,32.1,30.08,NE,36,0.0,0.0,100,0.00,,,0.56,WeatherCatV1.12B45,2013-02-25 13:31:00,
2013-02-25 08:36:00,32.1,32.1,30.10,NE,36,0.0,0.0,100,0.00,,,0.56,WeatherCatV1.12B45,2013-02-25 13:36:00,
2013-02-25 08:41:00,32.0,32.0,30.08,NE,36,0.0,0.0,100,0.00,,,0.56,WeatherCatV1.12B45,2013-02-25 13:41:00,
2013-02-25 08:46:00,32.1,32.1,30.09,NE,36,0.0,0.0,100,0.00,,,0.56,WeatherCatV1.12B45,2013-02-25 13:46:00,
2013-02-25 08:51:00,32.2,32.2,30.09,NE,36,0.0,0.0,100,0.00,,,0.56,WeatherCatV1.12B45,2013-02-25 13:51:00,
2013-02-25 08:56:00,32.2,32.2,30.09,NE,36,0.0,0.0,100,0.00,,,0.56,WeatherCatV1.12B45,2013-02-25 13:56:00,
2013-02-25 09:01:00,32.2,32.2,30.08,NE,36,0.0,0.0,100,0.00,,,0.56,WeatherCatV1.12B45,2013-02-25 14:01:00,
2013-02-25 09:06:00,32.7,32.7,30.09,NE,36,0.0,0.0,100,0.00,,,0.56,WeatherCatV1.12B45,2013-02-25 14:06:00,
2013-02-25 09:10:00,32.9,32.9,30.09,NE,36,0.0,0.0,100,0.00,,,0.56,WeatherCatV1.12B45,2013-02-25 14:10:00,
2013-02-25 09:15:00,33.2,33.2,30.09,NE,36,0.0,0.0,100,0.00,,,0.56,WeatherCatV1.12B45,2013-02-25 14:15:00,
2013-02-25 09:17:00,33.3,33.3,30.09,NE,36,0.0,0.0,100,0.00,,,0.56,WeatherCatV1.12B45,2013-02-25 14:17:00,
2013-02-25 09:22:00,33.5,33.5,30.09,NE,36,0.0,0.0,100,0.00,,,0.56,WeatherCatV1.12B45,2013-02-25 14:22:00,
2013-02-25 09:27:00,33.7,33.7,30.10,NE,36,0.0,0.0,100,0.00,,,0.56,WeatherCatV1.12B45,2013-02-25 14:27:00,
2013-02-25 09:32:00,33.9,33.9,30.09,NE,36,0.0,0.0,100,0.00,,,0.56,WeatherCatV1.12B45,2013-02-25 14:32:00,
2013-02-25 09:37:00,33.9,33.9,30.10,NE,36,0.0,0.0,100,0.00,,,0.57,WeatherCatV1.12B45,2013-02-25 14:37:00,
2013-02-25 09:42:00,34.1,34.1,30.10,NE,36,0.0,2.0,100,0.00,,,0.57,WeatherCatV1.12B45,2013-02-25 14:42:00,
2013-02-25 09:47:00,34.0,34.0,30.10,NE,36,0.0,0.0,100,0.01,,,0.58,WeatherCatV1.12B45,2013-02-25 14:47:00,
2013-02-25 09:52:00,34.0,34.0,30.10,NE,36,0.0,0.0,100,0.00,,,0.58,WeatherCatV1.12B45,2013-02-25 14:52:00,
2013-02-25 09:57:00,34.2,34.2,30.09,NE,36,0.0,0.0,100,0.00,,,0.58,WeatherCatV1.12B45,2013-02-25 14:57:00,
2013-02-25 10:02:00,34.3,34.3,30.09,NE,36,0.0,0.0,100,0.00,,,0.58,WeatherCatV1.12B45,2013-02-25 15:02:00,
2013-02-25 10:07:00,34.5,34.2,30.12,NE,36,0.0,1.0,99,0.00,,,0.59,WeatherCatV1.12B45,2013-02-25 15:07:00,
2013-02-25 10:12:00,34.6,34.3,30.11,NE,36,0.0,0.0,99,0.00,,,0.59,WeatherCatV1.12B45,2013-02-25 15:12:00,
2013-02-25 10:17:00,34.6,34.3,30.11,NE,36,0.0,0.0,99,0.00,,,0.60,WeatherCatV1.12B45,2013-02-25 15:17:00,
2013-02-25 10:22:00,34.9,34.6,30.10,NE,36,0.0,0.0,99,0.00,,,0.60,WeatherCatV1.12B45,2013-02-25 15:22:00,
2013-02-25 10:27:00,35.0,34.5,30.10,NE,36,0.0,3.0,98,0.03,,,0.61,WeatherCatV1.12B45,2013-02-25 15:27:00,
2013-02-25 10:32:00,35.3,34.8,30.11,NE,36,0.0,2.0,98,0.00,,,0.61,WeatherCatV1.12B45,2013-02-25 15:32:00,
2013-02-25 10:37:00,35.6,34.8,30.11,NE,36,0.0,1.0,97,0.00,,,0.62,WeatherCatV1.12B45,2013-02-25 15:37:00,
2013-02-25 10:42:00,35.9,35.1,30.11,NE,36,1.0,2.0,97,0.00,,,0.62,WeatherCatV1.12B45,2013-02-25 15:42:00,
2013-02-25 10:47:00,36.2,35.4,30.11,NE,36,0.0,3.0,97,0.00,,,0.63,WeatherCatV1.12B45,2013-02-25 15:47:00,
2013-02-25 10:51:00,36.3,35.3,30.11,NE,36,0.0,2.0,96,0.00,,,0.63,WeatherCatV1.12B45,2013-02-25 15:51:00,
2013-02-25 10:56:00,36.5,35.2,30.11,NE,36,0.0,0.0,95,0.00,,,0.64,WeatherCatV1.12B45,2013-02-25 15:56:00,
2013-02-25 11:01:00,36.6,35.0,30.11,NE,36,0.0,2.0,94,0.07,,,0.65,WeatherCatV1.12B45,2013-02-25 16:01:00,
2013-02-25 11:06:00,36.6,34.8,30.11,NE,36,1.0,2.0,93,0.00,,,0.65,WeatherCatV1.12B45,2013-02-25 16:06:00,
2013-02-25 11:11:00,36.2,34.4,30.11,NE,36,2.0,2.0,93,0.00,,,0.66,WeatherCatV1.12B45,2013-02-25 16:11:00,
2013-02-25 11:16:00,35.8,34.0,30.10,NE,36,1.0,3.0,93,0.07,,,0.67,WeatherCatV1.12B45,2013-02-25 16:16:00,
2013-02-25 11:21:00,35.6,34.0,30.10,NE,36,0.0,0.0,94,0.00,,,0.67,WeatherCatV1.12B45,2013-02-25 16:21:00,
2013-02-25 11:26:00,36.0,34.4,30.11,NE,36,0.0,2.0,94,0.00,,,0.68,WeatherCatV1.12B45,2013-02-25 16:26:00,
2013-02-25 11:31:00,35.9,34.3,30.11,NE,37,1.0,4.0,94,0.08,,,0.69,WeatherCatV1.12B45,2013-02-25 16:31:00,
2013-02-25 11:36:00,35.6,34.0,30.12,NE,50,1.0,4.0,94,0.00,,,0.69,WeatherCatV1.12B45,2013-02-25 16:36:00,
2013-02-25 11:41:00,35.5,33.9,30.11,NE,50,0.0,2.0,94,48.50,,,1.38,WeatherCatV1.12B45,2013-02-25 16:41:00,
2013-02-25 11:46:00,35.7,34.4,30.10,NE,50,0.0,4.0,95,0.09,,,1.71,WeatherCatV1.12B45,2013-02-25 16:46:00,
2013-02-25 11:51:00,36.0,34.7,30.10,NE,50,0.0,2.0,95,0.00,,,1.72,WeatherCatV1.12B45,2013-02-25 16:51:00,
2013-02-25 11:56:00,36.5,35.2,30.11,NE,50,0.0,2.0,95,0.00,,,1.73,WeatherCatV1.12B45,2013-02-25 16:56:00,
2013-02-25 12:01:00,36.6,35.0,30.11,NE,50,2.0,4.0,94,0.08,,,1.74,WeatherCatV1.12B45,2013-02-25 17:01:00,
2013-02-25 12:06:00,36.7,34.6,30.10,NE,50,2.0,3.0,92,0.11,,,1.75,WeatherCatV1.12B45,2013-02-25 17:06:00,
2013-02-25 12:11:00,36.9,34.5,30.10,NE,50,2.0,3.0,91,0.00,,,1.75,WeatherCatV1.12B45,2013-02-25 17:11:00,
2013-02-25 12:16:00,36.9,34.5,30.10,NE,50,0.0,1.0,91,0.00,,,1.76,WeatherCatV1.12B45,2013-02-25 17:16:00,
2013-02-25 12:21:00,36.7,34.0,30.11,NE,50,1.0,4.0,90,0.00,,,1.76,WeatherCatV1.12B45,2013-02-25 17:21:00,
2013-02-25 12:26:00,36.2,33.8,30.11,NE,56,1.0,3.0,91,0.00,,,1.77,WeatherCatV1.12B45,2013-02-25 17:26:00,
2013-02-25 12:31:00,35.8,33.4,30.11,ESE,109,1.0,6.0,91,0.00,,,1.77,WeatherCatV1.12B45,2013-02-25 17:31:00,
2013-02-25 12:36:00,35.5,33.4,30.11,ESE,109,0.0,0.0,92,0.04,,,1.78,WeatherCatV1.12B45,2013-02-25 17:36:00,
2013-02-25 12:41:00,35.8,34.2,30.10,ESE,109,0.0,2.0,94,0.00,,,1.78,WeatherCatV1.12B45,2013-02-25 17:41:00,
2013-02-25 12:46:00,36.0,34.4,30.11,ESE,109,0.0,2.0,94,0.00,,,1.78,WeatherCatV1.12B45,2013-02-25 17:46:00,
2013-02-25 12:51:00,36.0,34.4,30.11,ESE,109,1.0,3.0,94,0.00,,,1.78,WeatherCatV1.12B45,2013-02-25 17:51:00,
2013-02-25 12:56:00,36.2,34.6,30.11,ESE,109,1.0,2.0,94,0.00,,,1.79,WeatherCatV1.12B45,2013-02-25 17:56:00,
2013-02-25 13:01:00,36.3,34.7,30.12,ESE,109,0.0,1.0,94,0.00,,,1.79,WeatherCatV1.12B45,2013-02-25 18:01:00,
2013-02-25 13:06:00,36.4,34.3,30.12,ESE,109,0.0,2.0,92,0.02,,,1.80,WeatherCatV1.12B45,2013-02-25 18:06:00,
2013-02-25 13:11:00,36.6,34.5,30.12,ESE,109,2.0,3.0,92,0.00,,,1.80,WeatherCatV1.12B45,2013-02-25 18:11:00,
2013-02-25 13:16:00,36.9,34.8,30.13,ESE,109,2.0,3.0,92,0.00,,,1.80,WeatherCatV1.12B45,2013-02-25 18:16:00,
2013-02-25 13:21:00,36.9,34.8,30.13,ESE,108,2.0,4.0,92,0.00,,,1.80,WeatherCatV1.12B45,2013-02-25 18:21:00,
2013-02-25 13:26:00,36.9,34.8,30.14,ESE,109,2.0,3.0,92,0.00,,,1.81,WeatherCatV1.12B45,2013-02-25 18:26:00,
2013-02-25 13:31:00,36.8,34.4,30.13,ESE,109,3.0,4.0,91,0.00,,,1.81,WeatherCatV1.12B45,2013-02-25 18:31:00,
2013-02-25 13:36:00,36.6,34.2,30.14,ESE,109,2.0,3.0,91,0.00,,,1.81,WeatherCatV1.12B45,2013-02-25 18:36:00,
2013-02-25 13:41:00,36.6,34.5,30.14,ESE,109,1.0,2.0,92,0.00,,,1.81,WeatherCatV1.12B45,2013-02-25 18:41:00,
2013-02-25 13:46:00,36.5,34.4,30.14,ESE,109,1.0,2.0,92,0.00,,,1.82,WeatherCatV1.12B45,2013-02-25 18:46:00,
2013-02-25 13:51:00,36.3,34.2,30.13,ESE,109,2.0,3.0,92,0.00,,,1.82,WeatherCatV1.12B45,2013-02-25 18:51:00,
2013-02-25 13:56:00,36.2,34.1,30.14,ESE,109,2.0,3.0,92,0.00,,,1.82,WeatherCatV1.12B45,2013-02-25 18:56:00,
2013-02-25 14:01:00,36.2,34.1,30.14,ESE,109,1.0,3.0,92,0.00,,,1.82,WeatherCatV1.12B45,2013-02-25 19:01:00,
2013-02-25 14:06:00,36.0,34.2,30.14,ESE,109,1.0,2.0,93,0.00,,,1.83,WeatherCatV1.12B45,2013-02-25 19:06:00,
2013-02-25 14:11:00,35.9,34.1,30.14,ESE,109,0.0,0.0,93,0.00,,,1.83,WeatherCatV1.12B45,2013-02-25 19:11:00,
2013-02-25 14:16:00,35.9,34.1,30.14,ESE,109,0.0,0.0,93,0.00,,,1.83,WeatherCatV1.12B45,2013-02-25 19:16:00,
2013-02-25 14:21:00,35.9,34.3,30.14,ESE,109,1.0,1.0,94,0.00,,,1.83,WeatherCatV1.12B45,2013-02-25 19:21:00,
2013-02-25 14:26:00,35.9,34.3,30.14,ESE,109,0.0,1.0,94,0.00,,,1.83,WeatherCatV1.12B45,2013-02-25 19:26:00,
2013-02-25 14:31:00,36.0,34.4,30.15,ESE,109,0.0,0.0,94,0.00,,,1.83,WeatherCatV1.12B45,2013-02-25 19:31:00,
2013-02-25 14:36:00,35.9,34.3,30.15,ESE,109,1.0,1.0,94,0.00,,,1.83,WeatherCatV1.12B45,2013-02-25 19:36:00,
2013-02-25 14:41:00,35.9,34.3,30.15,ESE,109,0.0,0.0,94,0.00,,,1.83,WeatherCatV1.12B45,2013-02-25 19:41:00,
2013-02-25 14:42:00,35.9,34.3,30.15,ESE,109,0.0,0.0,94,0.00,,,1.83,WeatherCatV1.12B45,2013-02-25 19:42:00,
2013-02-25 14:47:00,35.9,34.3,30.15,ESE,109,1.0,2.0,94,0.00,,,1.84,WeatherCatV1.12B45,2013-02-25 19:47:00,
2013-02-25 14:52:00,36.1,34.5,30.15,ESE,109,0.0,0.0,94,0.00,,,1.84,WeatherCatV1.12B45,2013-02-25 19:52:00,
2013-02-25 14:57:00,36.1,34.8,30.15,ESE,109,1.0,2.0,95,0.00,,,1.84,WeatherCatV1.12B45,2013-02-25 19:57:00,
2013-02-25 15:02:00,36.2,34.6,30.16,ESE,109,0.0,0.0,94,0.00,,,1.84,WeatherCatV1.12B45,2013-02-25 20:02:00,
2013-02-25 15:07:00,36.3,35.0,30.16,ESE,109,0.0,0.0,95,0.03,,,1.85,WeatherCatV1.12B45,2013-02-25 20:07:00,
2013-02-25 15:12:00,36.3,34.7,30.17,ESE,109,0.0,0.0,94,0.00,,,1.85,WeatherCatV1.12B45,2013-02-25 20:12:00,
2013-02-25 15:17:00,36.5,35.2,30.17,ESE,109,0.0,0.0,95,0.00,,,1.85,WeatherCatV1.12B45,2013-02-25 20:17:00,
2013-02-25 15:22:00,36.5,35.2,30.17,ESE,109,0.0,0.0,95,0.00,,,1.85,WeatherCatV1.12B45,2013-02-25 20:22:00,
2013-02-25 15:27:00,36.5,35.2,30.16,ESE,109,0.0,0.0,95,0.00,,,1.85,WeatherCatV1.12B45,2013-02-25 20:27:00,
2013-02-25 15:32:00,36.6,35.3,30.17,ESE,109,0.0,0.0,95,0.00,,,1.85,WeatherCatV1.12B45,2013-02-25 20:32:00,
2013-02-25 15:37:00,36.5,35.2,30.17,ESE,109,0.0,0.0,95,0.00,,,1.85,WeatherCatV1.12B45,2013-02-25 20:37:00,
2013-02-25 15:42:00,36.5,35.2,30.16,ESE,109,0.0,0.0,95,0.00,,,1.85,WeatherCatV1.12B45,2013-02-25 20:42:00,
2013-02-25 15:47:00,36.5,35.2,30.17,ESE,109,0.0,0.0,95,0.00,,,1.86,WeatherCatV1.12B45,2013-02-25 20:47:00,
2013-02-25 15:52:00,36.5,35.2,30.16,ESE,109,0.0,0.0,95,0.00,,,1.86,WeatherCatV1.12B45,2013-02-25 20:52:00,
2013-02-25 15:57:00,36.5,35.5,30.17,ESE,109,0.0,0.0,96,0.00,,,1.86,WeatherCatV1.12B45,2013-02-25 20:57:00,
2013-02-25 16:02:00,36.5,35.5,30.17,ESE,109,0.0,1.0,96,0.00,,,1.86,WeatherCatV1.12B45,2013-02-25 21:02:00,
2013-02-25 16:07:00,36.5,35.2,30.13,ESE,109,0.0,0.0,95,0.00,,,1.86,WeatherCatV1.12B45,2013-02-25 21:07:00,
2013-02-25 16:12:00,36.5,35.5,30.17,ESE,109,0.0,0.0,96,0.00,,,1.86,WeatherCatV1.12B45,2013-02-25 21:12:00,
2013-02-25 16:17:00,36.5,35.5,30.17,ESE,109,0.0,0.0,96,0.00,,,1.87,WeatherCatV1.12B45,2013-02-25 21:17:00,
2013-02-25 16:22:00,36.3,35.3,30.17,ESE,109,0.0,0.0,96,0.00,,,1.87,WeatherCatV1.12B45,2013-02-25 21:22:00,
2013-02-25 16:27:00,36.3,35.3,30.17,ESE,109,0.0,1.0,96,0.00,,,1.87,WeatherCatV1.12B45,2013-02-25 21:27:00,
2013-02-25 16:32:00,36.2,35.2,30.17,ESE,109,0.0,0.0,96,0.00,,,1.87,WeatherCatV1.12B45,2013-02-25 21:32:00,
2013-02-25 16:37:00,36.2,35.2,30.17,ESE,109,0.0,0.0,96,0.00,,,1.87,WeatherCatV1.12B45,2013-02-25 21:37:00,
2013-02-25 16:42:00,36.0,35.0,30.17,ESE,109,0.0,0.0,96,0.00,,,1.87,WeatherCatV1.12B45,2013-02-25 21:42:00,
2013-02-25 16:47:00,35.9,34.9,30.17,ESE,109,0.0,0.0,96,0.00,,,1.87,WeatherCatV1.12B45,2013-02-25 21:47:00,
2013-02-25 16:52:00,35.7,34.9,30.17,ESE,109,0.0,0.0,97,0.00,,,1.87,WeatherCatV1.12B45,2013-02-25 21:52:00,
2013-02-25 16:57:00,35.7,34.9,30.17,ESE,109,0.0,0.0,97,0.00,,,1.87,WeatherCatV1.12B45,2013-02-25 21:57:00,
2013-02-25 17:02:00,35.6,34.8,30.17,ESE,109,0.0,0.0,97,0.00,,,1.87,WeatherCatV1.12B45,2013-02-25 22:02:00,
2013-02-25 17:07:00,35.5,34.7,30.18,ESE,109,0.0,0.0,97,0.00,,,1.87,WeatherCatV1.12B45,2013-02-25 22:07:00,
2013-02-25 17:12:00,35.5,35.0,30.17,ESE,109,1.0,2.0,98,0.00,,,1.87,WeatherCatV1.12B45,2013-02-25 22:12:00,
2013-02-25 17:17:00,35.2,34.4,30.17,ESE,109,1.0,1.0,97,0.00,,,1.87,WeatherCatV1.12B45,2013-02-25 22:17:00,
2013-02-25 17:22:00,35.0,34.5,30.17,ESE,109,0.0,2.0,98,0.00,,,1.87,WeatherCatV1.12B45,2013-02-25 22:22:00,
2013-02-25 17:27:00,34.7,34.2,30.17,ESE,109,0.0,0.0,98,0.00,,,1.88,WeatherCatV1.12B45,2013-02-25 22:27:00,
2013-02-25 17:32:00,34.6,34.1,30.18,ESE,109,1.0,2.0,98,0.00,,,1.88,WeatherCatV1.12B45,2013-02-25 22:32:00,
2013-02-25 17:37:00,34.6,34.1,30.18,ESE,109,0.0,2.0,98,0.00,,,1.88,WeatherCatV1.12B45,2013-02-25 22:37:00,
2013-02-25 17:42:00,34.5,34.0,30.18,ESE,109,0.0,0.0,98,0.00,,,1.88,WeatherCatV1.12B45,2013-02-25 22:42:00,
2013-02-25 17:47:00,34.4,34.1,30.18,ESE,109,0.0,0.0,99,0.00,,,1.88,WeatherCatV1.12B45,2013-02-25 22:47:00,
2013-02-25 17:52:00,34.2,33.9,30.18,ESE,109,0.0,0.0,99,0.00,,,1.88,WeatherCatV1.12B45,2013-02-25 22:52:00,
2013-02-25 17:57:00,34.2,33.9,30.18,ESE,109,0.0,2.0,99,0.00,,,1.88,WeatherCatV1.12B45,2013-02-25 22:57:00,
2013-02-25 18:02:00,34.0,33.7,30.18,ESE,109,0.0,0.0,99,0.00,,,1.88,WeatherCatV1.12B45,2013-02-25 23:02:00,
2013-02-25 18:07:00,33.9,33.6,30.19,ESE,109,0.0,0.0,99,0.00,,,1.88,WeatherCatV1.12B45,2013-02-25 23:07:00,
2013-02-25 18:12:00,33.9,33.6,30.19,ESE,109,0.0,0.0,99,0.00,,,1.88,WeatherCatV1.12B45,2013-02-25 23:12:00,
2013-02-25 18:17:00,33.8,33.5,30.19,ESE,109,0.0,0.0,99,0.00,,,1.88,WeatherCatV1.12B45,2013-02-25 23:17:00,
2013-02-25 18:18:00,33.8,33.5,30.19,ESE,109,0.0,0.0,99,0.00,,,1.88,WeatherCatV1.12B45,2013-02-25 23:18:00,
2013-02-25 18:23:00,33.9,33.6,30.19,ESE,109,0.0,0.0,99,0.00,,,1.88,WeatherCatV1.12B45,2013-02-25 23:23:00,
2013-02-25 18:28:00,33.8,33.8,30.19,ESE,109,0.0,0.0,100,0.00,,,1.88,WeatherCatV1.12B45,2013-02-25 23:28:00,
2013-02-25 18:33:00,33.8,33.8,30.19,ESE,109,0.0,0.0,100,0.00,,,1.88,WeatherCatV1.12B45,2013-02-25 23:33:00,
2013-02-25 18:38:00,33.6,33.6,30.19,ESE,109,0.0,0.0,100,0.00,,,1.88,WeatherCatV1.12B45,2013-02-25 23:38:00,
2013-02-25 18:43:00,33.6,33.6,30.19,ESE,109,0.0,0.0,100,0.00,,,1.88,WeatherCatV1.12B45,2013-02-25 23:43:00,
2013-02-25 18:48:00,33.6,33.3,30.21,ESE,109,0.0,0.0,99,0.00,,,1.88,WeatherCatV1.12B45,2013-02-25 23:48:00,
2013-02-25 18:53:00,33.5,33.5,30.21,ESE,109,0.0,0.0,100,0.00,,,1.88,WeatherCatV1.12B45,2013-02-25 23:53:00,
2013-02-25 18:58:00,33.5,33.5,30.20,ESE,109,0.0,0.0,100,0.00,,,1.88,WeatherCatV1.12B45,2013-02-25 23:58:00,
2013-02-25 19:03:00,33.3,33.3,30.21,ESE,109,0.0,0.0,100,0.00,,,1.88,WeatherCatV1.12B45,2013-02-26 00:03:00,
2013-02-25 19:08:00,33.3,33.3,30.21,ESE,109,0.0,0.0,100,0.00,,,1.88,WeatherCatV1.12B45,2013-02-26 00:08:00,
2013-02-25 19:13:00,33.3,33.3,30.22,ESE,109,0.0,0.0,100,0.00,,,1.88,WeatherCatV1.12B45,2013-02-26 00:13:00,
2013-02-25 19:18:00,33.2,33.2,30.22,ESE,109,0.0,0.0,100,0.00,,,1.88,WeatherCatV1.12B45,2013-02-26 00:18:00,
2013-02-25 19:23:00,33.2,33.2,30.22,ESE,109,0.0,0.0,100,0.00,,,1.88,WeatherCatV1.12B45,2013-02-26 00:23:00,
2013-02-25 19:28:00,33.2,33.2,30.22,ESE,109,0.0,0.0,100,0.00,,,1.88,WeatherCatV1.12B45,2013-02-26 00:28:00,
2013-02-25 19:33:00,33.2,33.2,30.23,ESE,109,0.0,0.0,100,0.00,,,1.88,WeatherCatV1.12B45,2013-02-26 00:33:00,
2013-02-25 19:38:00,33.2,33.2,30.23,ESE,109,0.0,0.0,100,0.00,,,1.88,WeatherCatV1.12B45,2013-02-26 00:38:00,
2013-02-25 19:43:00,33.2,33.2,30.22,ESE,109,0.0,0.0,100,0.00,,,1.88,WeatherCatV1.12B45,2013-02-26 00:43:00,
2013-02-25 19:48:00,33.1,33.1,30.22,ESE,109,0.0,0.0,100,0.00,,,1.88,WeatherCatV1.12B45,2013-02-26 00:48:00,
2013-02-25 19:53:00,33.0,33.0,30.23,ESE,109,0.0,0.0,100,0.00,,,1.88,WeatherCatV1.12B45,2013-02-26 00:53:00,
2013-02-25 19:58:00,32.9,32.9,30.24,ESE,109,0.0,0.0,100,0.00,,,1.88,WeatherCatV1.12B45,2013-02-26 00:58:00,
2013-02-25 20:03:00,32.9,32.9,30.23,ESE,109,0.0,0.0,100,0.00,,,1.88,WeatherCatV1.12B45,2013-02-26 01:03:00,
2013-02-25 20:08:00,32.9,32.9,30.23,ESE,109,0.0,0.0,100,0.00,,,1.88,WeatherCatV1.12B45,2013-02-26 01:08:00,
2013-02-25 20:13:00,32.7,32.7,30.23,ESE,109,0.0,0.0,100,0.00,,,1.88,WeatherCatV1.12B45,2013-02-26 01:13:00,
2013-02-25 20:18:00,32.7,32.7,30.23,ESE,109,0.0,0.0,100,0.00,,,1.88,WeatherCatV1.12B45,2013-02-26 01:18:00,
2013-02-25 20:23:00,32.5,32.5,30.22,ESE,109,0.0,0.0,100,0.00,,,1.88,WeatherCatV1.12B45,2013-02-26 01:23:00,
2013-02-25 20:28:00,32.4,32.4,30.22,ESE,109,0.0,0.0,100,0.00,,,1.88,WeatherCatV1.12B45,2013-02-26 01:28:00,
2013-02-25 20:33:00,32.4,32.4,30.23,ESE,109,0.0,0.0,100,0.00,,,1.88,WeatherCatV1.12B45,2013-02-26 01:33:00,
2013-02-25 20:38:00,32.3,32.3,30.23,ESE,109,0.0,0.0,100,0.00,,,1.88,WeatherCatV1.12B45,2013-02-26 01:38:00,
2013-02-25 20:43:00,32.1,32.1,30.23,ESE,109,0.0,0.0,100,0.00,,,1.89,WeatherCatV1.12B45,2013-02-26 01:43:00,
2013-02-25 20:48:00,32.1,32.1,30.23,ESE,109,0.0,0.0,100,0.00,,,1.89,WeatherCatV1.12B45,2013-02-26 01:48:00,
2013-02-25 20:53:00,31.9,31.9,30.23,ESE,109,0.0,0.0,100,0.00,,,1.89,WeatherCatV1.12B45,2013-02-26 01:53:00,
2013-02-25 20:58:00,32.1,32.1,30.23,ESE,109,0.0,0.0,100,0.00,,,1.89,WeatherCatV1.12B45,2013-02-26 01:58:00,
2013-02-25 21:03:00,32.1,32.1,30.24,ESE,109,0.0,0.0,100,0.00,,,1.89,WeatherCatV1.12B45,2013-02-26 02:03:00,
2013-02-25 21:08:00,32.1,32.1,30.23,ESE,109,0.0,0.0,100,0.00,,,1.89,WeatherCatV1.12B45,2013-02-26 02:08:00,
2013-02-25 21:13:00,31.9,31.9,30.24,ESE,109,0.0,0.0,100,0.00,,,1.89,WeatherCatV1.12B45,2013-02-26 02:13:00,
2013-02-25 21:18:00,32.0,32.0,30.24,ESE,109,0.0,0.0,100,0.00,,,1.89,WeatherCatV1.12B45,2013-02-26 02:18:00,
2013-02-25 21:23:00,32.1,32.1,30.24,ESE,109,0.0,0.0,100,0.00,,,1.89,WeatherCatV1.12B45,2013-02-26 02:23:00,
2013-02-25 21:28:00,31.9,31.9,30.23,ESE,109,0.0,0.0,100,0.00,,,1.89,WeatherCatV1.12B45,2013-02-26 02:28:00,
2013-02-25 21:33:00,31.9,31.9,30.23,ESE,109,0.0,0.0,100,0.00,,,1.89,WeatherCatV1.12B45,2013-02-26 02:33:00,
2013-02-25 21:38:00,31.9,31.9,30.23,ESE,109,0.0,0.0,100,0.00,,,1.89,WeatherCatV1.12B45,2013-02-26 02:38:00,
2013-02-25 21:43:00,31.9,31.9,30.22,ESE,109,0.0,0.0,100,0.00,,,1.89,WeatherCatV1.12B45,2013-02-26 02:43:00,
2013-02-25 21:48:00,32.0,32.0,30.23,ESE,109,0.0,0.0,100,0.00,,,1.89,WeatherCatV1.12B45,2013-02-26 02:48:00,
2013-02-25 21:53:00,31.9,31.9,30.24,ESE,109,0.0,0.0,100,0.00,,,1.89,WeatherCatV1.12B45,2013-02-26 02:53:00,
2013-02-25 21:58:00,31.9,31.9,30.22,ESE,109,0.0,0.0,100,0.00,,,1.89,WeatherCatV1.12B45,2013-02-26 02:58:00,
2013-02-25 22:03:00,31.9,31.9,30.23,ESE,109,0.0,0.0,100,0.00,,,1.89,WeatherCatV1.12B45,2013-02-26 03:03:00,
2013-02-25 22:08:00,31.8,31.8,30.23,ESE,109,0.0,0.0,100,0.00,,,1.89,WeatherCatV1.12B45,2013-02-26 03:08:00,
2013-02-25 22:13:00,31.8,31.8,30.24,ESE,109,0.0,0.0,100,0.00,,,1.89,WeatherCatV1.12B45,2013-02-26 03:13:00,
2013-02-25 22:18:00,31.8,31.8,30.23,ESE,109,0.0,0.0,100,0.00,,,1.89,WeatherCatV1.12B45,2013-02-26 03:18:00,
2013-02-25 22:23:00,31.8,31.8,30.23,ESE,109,0.0,0.0,100,0.00,,,1.89,WeatherCatV1.12B45,2013-02-26 03:23:00,
2013-02-25 22:28:00,31.8,31.8,30.23,ESE,109,0.0,0.0,100,0.00,,,1.89,WeatherCatV1.12B45,2013-02-26 03:28:00,
2013-02-25 22:33:00,31.6,31.6,30.23,ESE,109,0.0,0.0,100,0.00,,,1.89,WeatherCatV1.12B45,2013-02-26 03:33:00,
2013-02-25 22:38:00,31.5,31.5,30.23,ESE,109,0.0,0.0,100,0.00,,,1.89,WeatherCatV1.12B45,2013-02-26 03:38:00,
2013-02-25 22:43:00,31.5,31.5,30.24,ESE,109,0.0,0.0,100,0.00,,,1.89,WeatherCatV1.12B45,2013-02-26 03:43:00,
2013-02-25 22:48:00,31.3,31.3,30.23,ESE,109,0.0,0.0,100,0.00,,,1.89,WeatherCatV1.12B45,2013-02-26 03:48:00,
2013-02-25 22:53:00,31.4,31.4,30.23,ESE,109,0.0,0.0,100,0.00,,,1.89,WeatherCatV1.12B45,2013-02-26 03:53:00,
2013-02-25 22:58:00,31.1,31.1,30.23,ESE,109,0.0,0.0,100,0.00,,,1.89,WeatherCatV1.12B45,2013-02-26 03:58:00,
2013-02-25 23:03:00,30.9,30.9,30.23,ESE,109,0.0,0.0,100,0.00,,,1.89,WeatherCatV1.12B45,2013-02-26 04:03:00,
2013-02-25 23:08:00,30.7,30.7,30.23,ESE,109,0.0,0.0,100,0.00,,,1.89,WeatherCatV1.12B45,2013-02-26 04:08:00,
2013-02-25 23:13:00,30.5,30.5,30.23,ESE,109,0.0,0.0,100,0.00,,,1.89,WeatherCatV1.12B45,2013-02-26 04:13:00,
2013-02-25 23:14:00,30.3,30.3,30.24,ESE,109,0.0,0.0,100,0.00,,,1.89,WeatherCatV1.12B45,2013-02-26 04:14:00,
2013-02-25 23:19:00,30.2,30.2,30.24,ESE,109,0.0,0.0,100,0.00,,,1.89,WeatherCatV1.12B45,2013-02-26 04:19:00,
2013-02-25 23:24:00,30.1,30.1,30.24,ESE,109,0.0,0.0,100,0.00,,,1.89,WeatherCatV1.12B45,2013-02-26 04:24:00,
2013-02-25 23:29:00,30.0,30.0,30.25,ESE,109,0.0,0.0,100,0.00,,,1.89,WeatherCatV1.12B45,2013-02-26 04:29:00,
2013-02-25 23:34:00,30.0,30.0,30.24,ESE,109,0.0,0.0,100,0.00,,,1.89,WeatherCatV1.12B45,2013-02-26 04:34:00,
2013-02-25 23:39:00,29.9,29.9,30.25,ESE,109,0.0,0.0,100,0.00,,,1.89,WeatherCatV1.12B45,2013-02-26 04:39:00,
2013-02-25 23:44:00,29.8,29.8,30.25,ESE,109,0.0,0.0,100,0.00,,,1.89,WeatherCatV1.12B45,2013-02-26 04:44:00,
2013-02-25 23:49:00,29.6,29.6,30.25,ESE,109,0.0,0.0,100,0.00,,,1.89,WeatherCatV1.12B45,2013-02-26 04:49:00,
2013-02-25 23:54:00,29.4,29.4,30.28,ESE,109,0.0,0.0,100,0.00,,,1.89,WeatherCatV1.12B45,2013-02-26 04:54:00,
2013-02-25 23:59:00,29.3,29.3,30.25,ESE,109,0.0,0.0,100,0.00,,,1.89,WeatherCatV1.12B45,2013-02-26 04:59:00,